Time;durP1;ratioP1;P1;durP2;ratioP2;P2;SDS_P1;SDS_P2;PMS_P1;PMS_P2;Temp;Humidity;BMP_temperature;BMP_pressure;BME280_temperature;BME280_humidity;BME280_pressure;Samples;Min_cycle;Max_cycle;Signal;HPM_P1;HPM_P2
2021/03/06 00:00:21;;;;;;;;;;;-0.20;99.90;;;;;;4998209;28;19916;-89
2021/03/06 00:02:54;;;;;;;;;;;-0.30;99.90;;;;;;4998740;28;19909;-89
2021/03/06 00:05:21;;;;;;;;;;;-0.40;99.90;;;;;;5015187;28;20025;-88
2021/03/06 00:07:51;;;;;;;;;;;-0.40;99.90;;;;;;4996064;28;19917;-87
2021/03/06 00:10:20;;;;;;;;;;;-0.40;99.90;;;;;;5014221;28;19948;-90
2021/03/06 00:12:54;;;;;;;;;;;-0.50;99.90;;;;;;4998668;28;19920;-90
2021/03/06 00:15:24;;;;;;;;;;;-0.60;99.90;;;;;;4998678;28;19909;-89
2021/03/06 00:17:50;;;;;;;;;;;-0.60;99.90;;;;;;4995674;28;20016;-89
2021/03/06 00:20:18;;;;;;;;;;;-0.60;99.90;;;;;;4995615;28;19956;-89
2021/03/06 00:22:52;;;;;;;;;;;-0.70;99.90;;;;;;4998035;28;19910;-90
2021/03/06 00:25:28;;;;;;;;;;;-0.70;99.90;;;;;;4997830;28;20012;-89
2021/03/06 00:27:53;;;;;;;;;;;-0.70;99.90;;;;;;5013903;28;19909;-89
2021/03/06 00:30:22;;;;;;;;;;;-0.80;99.90;;;;;;4998027;28;19924;-89
2021/03/06 00:32:51;;;;;;;;;;;-0.80;99.90;;;;;;4993373;28;19921;-89
2021/03/06 00:35:19;;;;;;;;;;;-0.80;99.90;;;;;;4995150;28;19917;-89
2021/03/06 00:37:48;;;;;;;;;;;-0.80;99.90;;;;;;5013597;28;19913;-88
2021/03/06 00:40:13;;;;;;;;;;;-0.80;99.90;;;;;;4997971;28;19910;-89
2021/03/06 00:42:48;;;;;;;;;;;-0.90;99.90;;;;;;4997387;28;19965;-89
2021/03/06 00:45:14;;;;;;;;;;;-0.80;99.90;;;;;;4996119;28;19914;-89
2021/03/06 00:47:43;;;;;;;;;;;-0.90;99.90;;;;;;4997010;28;19909;-88
2021/03/06 00:50:27;;;;;;;;;;;-0.90;99.90;;;;;;4993378;28;20060;-90
2021/03/06 00:53:10;;;;;;;;;;;-0.90;99.90;;;;;;5014050;28;19914;-89
2021/03/06 00:55:39;;;;;;;;;;;-0.90;99.90;;;;;;5000495;28;19914;-89
2021/03/06 00:58:10;;;;;;;;;;;-0.90;99.90;;;;;;4999605;28;19952;-89
2021/03/06 01:00:38;;;;;;;;;;;-0.80;99.90;;;;;;5002884;28;19913;-88
2021/03/06 01:03:11;;;;;;;;;;;-0.80;99.90;;;;;;5000780;28;19929;-88
2021/03/06 01:05:47;;;;;;;;;;;-0.80;99.90;;;;;;5001100;28;19920;-89
2021/03/06 01:08:16;;;;;;;;;;;-0.80;99.90;;;;;;5017516;28;19921;-89
2021/03/06 01:10:45;;;;;;;;;;;-0.80;99.90;;;;;;5001420;28;19917;-90
2021/03/06 01:13:23;;;;;;;;;;;-0.90;99.90;;;;;;5017416;28;19999;-89
2021/03/06 01:15:53;;;;;;;;;;;-0.90;99.90;;;;;;5017701;28;19960;-89
2021/03/06 01:18:22;;;;;;;;;;;-0.90;99.90;;;;;;5000415;28;19910;-90
2021/03/06 01:20:47;;;;;;;;;;;-0.90;99.90;;;;;;5000289;28;20280;-90
2021/03/06 01:23:16;;;;;;;;;;;-0.90;99.90;;;;;;4997409;28;19909;-90
2021/03/06 01:25:47;;;;;;;;;;;-0.90;99.90;;;;;;5000584;28;19949;-90
2021/03/06 01:28:31;;;;;;;;;;;-0.90;99.90;;;;;;5015174;28;19909;-89
2021/03/06 01:30:59;;;;;;;;;;;-0.80;99.90;;;;;;5000343;28;19913;-89
2021/03/06 01:33:27;;;;;;;;;;;-0.80;99.90;;;;;;5000541;28;20378;-90
2021/03/06 01:36:02;;;;;;;;;;;-0.80;99.90;;;;;;5000180;28;19909;-89
2021/03/06 01:38:35;;;;;;;;;;;-0.80;99.90;;;;;;4998807;28;20298;-89
2021/03/06 01:41:04;;;;;;;;;;;-0.80;99.90;;;;;;5000993;28;20271;-90
2021/03/06 01:43:32;;;;;;;;;;;-0.80;99.90;;;;;;5000002;28;20007;-90
2021/03/06 01:45:58;;;;;;;;;;;-0.80;99.90;;;;;;5001022;28;20343;-89
2021/03/06 01:48:29;;;;;;;;;;;-0.80;99.90;;;;;;4997594;28;19949;-90
2021/03/06 01:50:55;;;;;;;;;;;-0.90;99.90;;;;;;4999984;28;20019;-89
2021/03/06 01:53:23;;;;;;;;;;;-0.90;99.90;;;;;;5000898;28;20335;-90
2021/03/06 01:55:54;;;;;;;;;;;-0.90;99.90;;;;;;5000440;28;20000;-90
2021/03/06 01:58:19;;;;;;;;;;;-0.90;99.90;;;;;;5000654;28;20051;-90
2021/03/06 02:00:47;;;;;;;;;;;-0.90;99.90;;;;;;5001237;28;19945;-90
2021/03/06 02:03:13;;;;;;;;;;;-0.90;99.90;;;;;;5016776;28;19929;-89
2021/03/06 02:05:42;;;;;;;;;;;-0.90;99.90;;;;;;5037906;28;19909;-90
2021/03/06 02:08:07;;;;;;;;;;;-1.00;99.90;;;;;;5021014;28;19936;-90
2021/03/06 02:10:37;;;;;;;;;;;-1.00;99.90;;;;;;5027108;28;19925;-90
2021/03/06 02:13:08;;;;;;;;;;;-1.00;99.90;;;;;;5024387;28;19909;-90
2021/03/06 02:15:40;;;;;;;;;;;-1.10;99.90;;;;;;5023618;28;19909;-89
2021/03/06 02:18:07;;;;;;;;;;;-1.10;99.90;;;;;;5021947;28;19920;-90
2021/03/06 02:20:48;;;;;;;;;;;-1.10;99.90;;;;;;5021082;28;19996;-90
2021/03/06 02:23:16;;;;;;;;;;;-1.20;99.90;;;;;;5020624;28;19963;-90
2021/03/06 02:25:52;;;;;;;;;;;-1.20;99.90;;;;;;5020092;28;19953;-90
2021/03/06 02:28:36;;;;;;;;;;;-1.30;99.90;;;;;;5020334;28;19932;-90
2021/03/06 02:31:05;;;;;;;;;;;-1.30;99.90;;;;;;5019952;28;20008;-90
2021/03/06 02:33:38;;;;;;;;;;;-1.40;99.90;;;;;;5032683;28;19932;-90
2021/03/06 02:36:07;;;;;;;;;;;-1.40;99.90;;;;;;5017051;28;19961;-90
2021/03/06 02:38:39;;;;;;;;;;;-1.50;99.90;;;;;;5032596;28;19941;-90
2021/03/06 02:41:13;;;;;;;;;;;-1.60;99.90;;;;;;5018843;28;19963;-88
2021/03/06 02:43:40;;;;;;;;;;;-1.70;99.90;;;;;;5020378;28;19913;-90
2021/03/06 02:46:16;;;;;;;;;;;-1.80;99.90;;;;;;5019568;28;19945;-90
2021/03/06 02:48:45;;;;;;;;;;;-1.90;99.90;;;;;;5019526;28;20373;-90
2021/03/06 02:51:17;;;;;;;;;;;-2.00;99.90;;;;;;5034209;28;19935;-89
2021/03/06 02:53:46;;;;;;;;;;;-2.10;99.90;;;;;;5015530;28;20338;-90
2021/03/06 02:56:20;;;;;;;;;;;-2.10;99.90;;;;;;5019853;28;20273;-90
2021/03/06 02:58:58;;;;;;;;;;;-2.20;99.90;;;;;;5034463;28;20012;-90
2021/03/06 03:01:36;;;;;;;;;;;-2.30;99.90;;;;;;5019762;28;19916;-90
2021/03/06 03:04:25;;;;;;;;;;;-2.30;99.90;;;;;;5019041;28;19921;-90
2021/03/06 03:06:56;;;;;;;;;;;-2.40;99.90;;;;;;5019317;28;19988;-90
2021/03/06 03:09:28;;;;;;;;;;;-2.50;99.90;;;;;;5019074;28;19913;-90
2021/03/06 03:12:06;;;;;;;;;;;-2.50;99.90;;;;;;5037415;28;19945;-90
2021/03/06 03:14:37;;;;;;;;;;;-2.50;99.90;;;;;;5019768;28;19932;-90
2021/03/06 03:17:29;;;;;;;;;;;-2.60;99.90;;;;;;5020494;28;20015;-90
2021/03/06 03:20:23;;;;;;;;;;;-2.60;99.90;;;;;;4996696;28;19916;-90
2021/03/06 03:23:09;;;;;;;;;;;-2.70;99.90;;;;;;5019063;28;20265;-90
2021/03/06 03:25:46;;;;;;;;;;;-2.70;99.90;;;;;;5018031;28;19909;-90
2021/03/06 03:28:15;;;;;;;;;;;-2.70;99.90;;;;;;5019243;28;20260;-89
2021/03/06 03:30:56;;;;;;;;;;;-2.80;99.90;;;;;;5019220;28;19968;-89
2021/03/06 03:33:25;;;;;;;;;;;-2.70;99.90;;;;;;5036269;28;19917;-90
2021/03/06 03:35:53;;;;;;;;;;;-2.80;99.90;;;;;;5017223;28;19931;-90
2021/03/06 03:38:22;;;;;;;;;;;-2.80;99.90;;;;;;5015426;28;20038;-89
2021/03/06 03:40:56;;;;;;;;;;;-2.90;99.90;;;;;;5019194;28;19909;-90
2021/03/06 03:43:30;;;;;;;;;;;-2.90;99.90;;;;;;5019137;28;19913;-89
2021/03/06 03:46:01;;;;;;;;;;;-3.00;99.90;;;;;;5019155;28;19913;-89
2021/03/06 03:48:32;;;;;;;;;;;-3.00;99.90;;;;;;5019193;28;19916;-89
2021/03/06 03:50:58;;;;;;;;;;;-3.00;99.90;;;;;;5018775;28;19933;-90
2021/03/06 03:53:27;;;;;;;;;;;-3.10;99.90;;;;;;5018817;28;19912;-90
2021/03/06 03:55:56;;;;;;;;;;;-3.10;99.90;;;;;;5015004;28;19909;-89
2021/03/06 03:58:26;;;;;;;;;;;-3.10;99.90;;;;;;5014535;28;20311;-88
2021/03/06 04:01:00;;;;;;;;;;;-3.20;99.90;;;;;;4994872;28;19913;-90
2021/03/06 04:03:27;;;;;;;;;;;-3.20;99.90;;;;;;4998171;28;19925;-89
2021/03/06 04:06:00;;;;;;;;;;;-3.20;99.90;;;;;;4993500;28;20418;-89
2021/03/06 04:08:29;;;;;;;;;;;-3.30;99.90;;;;;;4998704;28;19920;-89
2021/03/06 04:10:57;;;;;;;;;;;-3.30;99.90;;;;;;5014067;28;19948;-90
2021/03/06 04:13:33;;;;;;;;;;;-3.30;99.90;;;;;;4997736;28;19909;-89
2021/03/06 04:16:11;;;;;;;;;;;-3.30;99.90;;;;;;4998972;28;19909;-89
2021/03/06 04:18:41;;;;;;;;;;;-3.30;99.90;;;;;;4997934;28;19914;-89
2021/03/06 04:21:10;;;;;;;;;;;-3.40;99.90;;;;;;4998754;28;19909;-89
2021/03/06 04:23:44;;;;;;;;;;;-3.40;99.90;;;;;;4997419;28;19925;-87
2021/03/06 04:26:15;;;;;;;;;;;-3.40;99.90;;;;;;4993746;28;20359;-90
2021/03/06 04:28:40;;;;;;;;;;;-3.50;99.90;;;;;;5018814;28;19916;-89
2021/03/06 04:31:11;;;;;;;;;;;-3.50;99.90;;;;;;5022100;28;19917;-90
2021/03/06 04:33:37;;;;;;;;;;;-3.50;99.90;;;;;;5018794;28;20063;-89
2021/03/06 04:36:14;;;;;;;;;;;-3.50;99.90;;;;;;5022974;28;19992;-90
2021/03/06 04:38:42;;;;;;;;;;;-3.40;99.90;;;;;;5023149;28;19917;-89
2021/03/06 04:41:11;;;;;;;;;;;-3.40;99.90;;;;;;5017991;28;19952;-89
2021/03/06 04:43:44;;;;;;;;;;;-3.50;99.90;;;;;;5022279;28;19964;-89
2021/03/06 04:46:10;;;;;;;;;;;-3.50;99.90;;;;;;5018440;28;19909;-89
2021/03/06 04:48:38;;;;;;;;;;;-3.50;99.90;;;;;;5040565;28;20008;-90
2021/03/06 04:51:05;;;;;;;;;;;-3.50;99.90;;;;;;5022351;28;19967;-88
2021/03/06 04:53:35;;;;;;;;;;;-3.50;99.90;;;;;;5021808;28;19909;-89
2021/03/06 04:56:04;;;;;;;;;;;-3.60;99.90;;;;;;5022368;28;19909;-89
2021/03/06 04:58:35;;;;;;;;;;;-3.60;99.90;;;;;;5039432;28;19956;-89
2021/03/06 05:01:04;;;;;;;;;;;-3.60;99.90;;;;;;5022091;28;20425;-89
2021/03/06 05:03:39;;;;;;;;;;;-3.60;99.90;;;;;;5018804;28;20366;-89
2021/03/06 05:06:07;;;;;;;;;;;-3.60;99.90;;;;;;5022509;28;19920;-89
2021/03/06 05:08:45;;;;;;;;;;;-3.70;99.90;;;;;;5023304;28;19983;-88
2021/03/06 05:11:11;;;;;;;;;;;-3.70;99.90;;;;;;5040078;28;19917;-87
2021/03/06 05:13:39;;;;;;;;;;;-3.70;99.90;;;;;;5038924;28;20016;-89
2021/03/06 05:16:08;;;;;;;;;;;-3.80;99.90;;;;;;5021773;28;19936;-88
2021/03/06 05:18:42;;;;;;;;;;;-3.80;99.90;;;;;;5038886;28;19924;-88
2021/03/06 05:21:11;;;;;;;;;;;-3.80;99.90;;;;;;5021754;28;19916;-88
2021/03/06 05:23:37;;;;;;;;;;;-3.80;99.90;;;;;;5022375;28;20275;-88
2021/03/06 05:26:05;;;;;;;;;;;-3.80;99.90;;;;;;5022308;28;19913;-89
2021/03/06 05:28:31;;;;;;;;;;;-3.90;99.90;;;;;;5018258;28;19916;-89
2021/03/06 05:31:02;;;;;;;;;;;-3.90;99.90;;;;;;5017851;28;19921;-89
2021/03/06 05:33:31;;;;;;;;;;;-3.90;99.90;;;;;;5033233;28;20000;-89
2021/03/06 05:36:02;;;;;;;;;;;-3.90;99.90;;;;;;5019434;28;20019;-89
2021/03/06 05:38:34;;;;;;;;;;;-3.90;99.90;;;;;;5018087;28;19909;-89
2021/03/06 05:41:03;;;;;;;;;;;-3.90;99.90;;;;;;5020563;28;19957;-89
2021/03/06 05:43:32;;;;;;;;;;;-4.00;99.90;;;;;;4962033;28;19954;-88
2021/03/06 05:46:05;;;;;;;;;;;-4.00;99.90;;;;;;4978264;28;19910;-88
2021/03/06 05:48:34;;;;;;;;;;;-4.00;99.90;;;;;;4975684;28;20399;-88
2021/03/06 05:51:04;;;;;;;;;;;-4.00;99.90;;;;;;4978814;28;19918;-87
2021/03/06 05:53:30;;;;;;;;;;;-4.00;99.90;;;;;;4978998;28;19910;-88
2021/03/06 05:55:58;;;;;;;;;;;-4.10;99.90;;;;;;4977864;28;19914;-88
2021/03/06 05:58:31;;;;;;;;;;;-4.10;99.90;;;;;;4977265;28;19910;-88
2021/03/06 06:01:00;;;;;;;;;;;-4.10;99.90;;;;;;4978060;28;19962;-88
2021/03/06 06:03:27;;;;;;;;;;;-4.00;99.90;;;;;;4976127;28;19937;-88
2021/03/06 06:05:53;;;;;;;;;;;-4.00;99.90;;;;;;4978072;28;20008;-88
2021/03/06 06:08:32;;;;;;;;;;;-4.00;99.90;;;;;;4977783;28;19961;-88
2021/03/06 06:11:02;;;;;;;;;;;-4.00;99.90;;;;;;4978275;28;19922;-88
2021/03/06 06:13:27;;;;;;;;;;;-4.00;99.90;;;;;;4984306;28;19942;-89
2021/03/06 06:15:56;;;;;;;;;;;-4.00;99.90;;;;;;5014873;28;19916;-88
2021/03/06 06:18:25;;;;;;;;;;;-4.00;99.90;;;;;;5020901;28;19919;-87
2021/03/06 06:20:54;;;;;;;;;;;-4.00;99.90;;;;;;5038562;28;20005;-87
2021/03/06 06:23:19;;;;;;;;;;;-3.90;99.90;;;;;;5037599;28;19956;-88
2021/03/06 06:25:48;;;;;;;;;;;-3.90;99.90;;;;;;5020823;28;19916;-88
2021/03/06 06:28:14;;;;;;;;;;;-3.90;99.90;;;;;;5020721;28;20003;-87
2021/03/06 06:31:00;;;;;;;;;;;-3.80;99.90;;;;;;5020099;28;19967;-87
2021/03/06 06:33:33;;;;;;;;;;;-3.80;99.90;;;;;;5019142;28;20027;-88
2021/03/06 06:36:02;;;;;;;;;;;-3.70;99.90;;;;;;5020432;28;19928;-88
2021/03/06 06:38:48;;;;;;;;;;;-3.60;99.90;;;;;;5037685;28;19913;-89
2021/03/06 06:41:17;;;;;;;;;;;-3.60;99.90;;;;;;5019228;28;19912;-88
2021/03/06 06:43:46;;;;;;;;;;;-3.50;99.90;;;;;;5020242;28;19917;-88
2021/03/06 06:46:29;;;;;;;;;;;-3.40;99.90;;;;;;5037953;28;19909;-88
2021/03/06 06:48:59;;;;;;;;;;;-3.40;99.90;;;;;;5019704;28;19992;-87
2021/03/06 06:51:30;;;;;;;;;;;-3.30;99.90;;;;;;5019577;28;19916;-88
2021/03/06 06:54:13;;;;;;;;;;;-3.20;99.90;;;;;;5019825;28;19917;-88
2021/03/06 06:56:46;;;;;;;;;;;-3.10;99.90;;;;;;5015090;28;19918;-87
2021/03/06 06:59:12;;;;;;;;;;;-3.00;99.90;;;;;;5015786;28;19921;-88
2021/03/06 07:01:40;;;;;;;;;;;-2.90;99.90;;;;;;5019903;28;20274;-88
2021/03/06 07:04:13;;;;;;;;;;;-2.70;99.90;;;;;;5019477;28;19936;-89
2021/03/06 07:06:41;;;;;;;;;;;-2.40;99.90;;;;;;5019221;28;19913;-88
2021/03/06 07:09:27;;;;;;;;;;;-2.20;99.90;;;;;;5014647;28;19915;-88
2021/03/06 07:12:13;;;;;;;;;;;-2.00;99.90;;;;;;5018826;28;20358;-89
2021/03/06 07:14:42;;;;;;;;;;;-1.80;99.90;;;;;;5018905;28;19909;-88
2021/03/06 07:17:20;;;;;;;;;;;-1.60;99.90;;;;;;5018866;28;19913;-89
2021/03/06 07:19:48;;;;;;;;;;;-1.40;99.90;;;;;;5019371;28;19919;-89
2021/03/06 07:22:27;;;;;;;;;;;-1.20;99.90;;;;;;5019126;28;19964;-89
2021/03/06 07:24:56;;;;;;;;;;;-1.10;99.90;;;;;;5018709;28;19979;-89
2021/03/06 07:27:24;;;;;;;;;;;-0.90;99.90;;;;;;5020913;28;19913;-89
2021/03/06 07:29:53;;;;;;;;;;;-0.80;99.90;;;;;;5015826;28;20346;-89
2021/03/06 07:32:28;;;;;;;;;;;-0.70;99.90;;;;;;5015058;28;20381;-89
2021/03/06 07:35:01;;;;;;;;;;;-0.50;99.90;;;;;;5032358;28;20375;-89
2021/03/06 07:37:33;;;;;;;;;;;-0.40;99.90;;;;;;5012582;28;20004;-90
2021/03/06 07:40:06;;;;;;;;;;;-0.20;99.90;;;;;;4997122;28;19926;-90
2021/03/06 07:42:49;;;;;;;;;;;0.00;99.90;;;;;;4997872;28;19910;-90
2021/03/06 07:45:23;;;;;;;;;;;0.20;99.90;;;;;;5011985;28;19910;-89
2021/03/06 07:48:09;;;;;;;;;;;0.70;99.90;;;;;;5016495;28;20274;-89
2021/03/06 07:50:50;;;;;;;;;;;1.80;99.90;;;;;;4999874;28;20405;-89
2021/03/06 07:53:20;;;;;;;;;;;3.40;99.90;;;;;;5017514;28;19920;-90
2021/03/06 07:55:52;;;;;;;;;;;5.00;99.90;;;;;;5016067;28;19976;-90
2021/03/06 07:58:37;;;;;;;;;;;6.40;99.90;;;;;;5015399;28;19910;-90
2021/03/06 08:01:03;;;;;;;;;;;7.60;98.80;;;;;;5013707;28;19918;-90
2021/03/06 08:03:38;;;;;;;;;;;9.00;96.20;;;;;;5026535;28;19944;-91
2021/03/06 08:06:25;;;;;;;;;;;10.10;93.10;;;;;;5034498;28;20290;-90
2021/03/06 08:08:50;;;;;;;;;;;11.40;87.30;;;;;;5017491;28;19909;-91
2021/03/06 08:11:43;;;;;;;;;;;12.20;79.90;;;;;;5024915;28;20024;-90
2021/03/06 08:14:27;;;;;;;;;;;12.70;71.70;;;;;;5018207;28;19909;-91
2021/03/06 08:16:55;;;;;;;;;;;13.20;67.10;;;;;;5016382;28;19933;-90
2021/03/06 08:19:30;;;;;;;;;;;13.50;64.40;;;;;;5014020;28;20024;-90
2021/03/06 08:22:14;;;;;;;;;;;13.40;62.10;;;;;;5026753;28;19917;-89
2021/03/06 08:24:48;;;;;;;;;;;13.20;62.60;;;;;;5034365;28;19944;-88
2021/03/06 08:27:16;;;;;;;;;;;13.30;62.80;;;;;;5033127;28;19916;-89
2021/03/06 08:29:46;;;;;;;;;;;13.50;62.50;;;;;;5032432;28;19920;-89
2021/03/06 08:32:19;;;;;;;;;;;13.30;61.90;;;;;;5017379;28;20329;-89
2021/03/06 08:35:07;;;;;;;;;;;13.60;61.20;;;;;;5020231;28;19909;-89
2021/03/06 08:37:34;;;;;;;;;;;14.00;60.20;;;;;;5020314;28;20301;-90
2021/03/06 08:40:11;;;;;;;;;;;14.60;59.10;;;;;;5016832;28;19939;-91
2021/03/06 08:42:59;;;;;;;;;;;14.90;58.40;;;;;;5019584;28;19913;-90
2021/03/06 08:45:26;;;;;;;;;;;15.00;56.80;;;;;;5019340;28;19917;-89
2021/03/06 08:47:58;;;;;;;;;;;15.20;56.30;;;;;;5019232;28;19909;-90
2021/03/06 08:50:31;;;;;;;;;;;15.40;55.40;;;;;;5036768;28;19909;-90
2021/03/06 08:53:07;;;;;;;;;;;15.50;55.40;;;;;;5017795;28;19920;-90
2021/03/06 08:55:34;;;;;;;;;;;15.70;54.30;;;;;;5015856;28;19921;-89
2021/03/06 08:58:03;;;;;;;;;;;15.60;53.90;;;;;;5018913;28;19955;-89
2021/03/06 09:00:44;;;;;;;;;;;16.00;54.10;;;;;;5019981;28;19909;-90
2021/03/06 09:03:36;;;;;;;;;;;16.30;53.50;;;;;;5037410;28;19909;-89
2021/03/06 09:06:05;;;;;;;;;;;16.70;52.20;;;;;;5016068;28;19932;-89
2021/03/06 09:08:36;;;;;;;;;;;16.90;51.60;;;;;;4959136;28;19914;-89
2021/03/06 09:11:09;;;;;;;;;;;16.90;50.70;;;;;;4958980;28;19925;-90
2021/03/06 09:13:41;;;;;;;;;;;17.30;50.10;;;;;;4976223;28;19914;-89
2021/03/06 09:16:16;;;;;;;;;;;17.30;49.30;;;;;;4959915;28;19918;-88
2021/03/06 09:18:52;;;;;;;;;;;17.00;49.00;;;;;;4961739;28;19910;-88
2021/03/06 09:21:24;;;;;;;;;;;17.00;49.60;;;;;;4961541;28;19917;-90
2021/03/06 09:23:58;;;;;;;;;;;17.20;50.00;;;;;;4961882;28;19916;-90
2021/03/06 09:26:26;;;;;;;;;;;17.50;48.40;;;;;;4960722;28;19917;-90
2021/03/06 09:28:53;;;;;;;;;;;17.90;47.80;;;;;;4964074;28;19910;-91
2021/03/06 09:31:34;;;;;;;;;;;18.50;47.30;;;;;;4981754;28;19968;-89
2021/03/06 09:34:04;;;;;;;;;;;19.00;45.70;;;;;;4945343;29;20426;-90
2021/03/06 09:36:35;;;;;;;;;;;19.10;45.00;;;;;;4944342;29;19914;-90
2021/03/06 09:39:14;;;;;;;;;;;19.20;44.30;;;;;;4951403;28;20005;-90
2021/03/06 09:41:43;;;;;;;;;;;18.40;44.90;;;;;;4959687;28;19918;-91
2021/03/06 09:44:14;;;;;;;;;;;16.80;46.60;;;;;;4963104;28;20418;-89
2021/03/06 09:46:51;;;;;;;;;;;15.10;48.80;;;;;;4963763;28;20097;-90
2021/03/06 09:49:16;;;;;;;;;;;13.60;51.00;;;;;;4963904;28;19924;-90
2021/03/06 09:51:55;;;;;;;;;;;12.20;53.30;;;;;;4965595;28;19945;-90
2021/03/06 09:54:30;;;;;;;;;;;11.10;55.50;;;;;;4979810;28;19916;-89
2021/03/06 09:57:01;;;;;;;;;;;10.30;57.30;;;;;;4978510;28;19910;-90
2021/03/06 09:59:37;;;;;;;;;;;9.70;59.30;;;;;;4962174;28;19910;-90
2021/03/06 10:02:15;;;;;;;;;;;9.20;60.10;;;;;;4979448;28;19910;-91
2021/03/06 10:04:47;;;;;;;;;;;8.70;60.70;;;;;;4976829;28;20311;-91
2021/03/06 10:07:15;;;;;;;;;;;8.30;60.80;;;;;;5003281;28;19913;-89
2021/03/06 10:09:45;;;;;;;;;;;8.10;61.30;;;;;;4974909;28;19917;-91
2021/03/06 10:12:18;;;;;;;;;;;7.80;61.70;;;;;;5007108;28;19910;-91
2021/03/06 10:14:54;;;;;;;;;;;7.60;62.50;;;;;;5000710;28;19969;-90
2021/03/06 10:17:27;;;;;;;;;;;7.30;62.70;;;;;;5013010;28;19909;-89
2021/03/06 10:20:01;;;;;;;;;;;7.10;63.60;;;;;;5004105;28;19920;-89
2021/03/06 10:22:47;;;;;;;;;;;6.90;63.60;;;;;;5011601;28;19910;-89
2021/03/06 10:25:28;;;;;;;;;;;6.80;64.60;;;;;;5035003;28;20003;-90
2021/03/06 10:28:07;;;;;;;;;;;6.80;64.60;;;;;;5022044;28;19909;-89
2021/03/06 10:30:45;;;;;;;;;;;6.80;64.40;;;;;;4923693;29;19944;-91
2021/03/06 10:33:33;;;;;;;;;;;6.80;64.20;;;;;;4943441;29;19950;-89
2021/03/06 10:35:59;;;;;;;;;;;6.80;64.00;;;;;;4939852;29;19922;-90
2021/03/06 10:38:35;;;;;;;;;;;6.90;63.60;;;;;;4950311;29;19910;-87
2021/03/06 10:41:07;;;;;;;;;;;7.00;63.20;;;;;;4954373;29;20013;-87
2021/03/06 10:43:37;;;;;;;;;;;7.30;62.40;;;;;;4950134;29;19911;-86
2021/03/06 10:46:21;;;;;;;;;;;7.50;60.40;;;;;;4956017;29;19921;-87
2021/03/06 10:48:57;;;;;;;;;;;7.50;59.50;;;;;;4919220;29;20289;-87
2021/03/06 10:51:26;;;;;;;;;;;7.50;59.10;;;;;;4902637;29;19923;-86
2021/03/06 10:54:00;;;;;;;;;;;7.90;59.00;;;;;;4904342;29;20444;-86
2021/03/06 10:56:30;;;;;;;;;;;9.30;56.70;;;;;;4976689;28;19914;-87
2021/03/06 10:59:01;;;;;;;;;;;11.20;53.60;;;;;;4958965;28;19910;-87
2021/03/06 11:01:32;;;;;;;;;;;12.70;49.20;;;;;;4959585;28;20013;-88
2021/03/06 11:04:00;;;;;;;;;;;13.80;47.10;;;;;;4960048;28;19926;-88
2021/03/06 11:06:28;;;;;;;;;;;15.00;45.50;;;;;;4995290;28;19949;-86
2021/03/06 11:09:06;;;;;;;;;;;15.80;42.50;;;;;;4995490;28;19934;-87
2021/03/06 11:11:37;;;;;;;;;;;16.60;41.50;;;;;;4979467;28;20374;-88
2021/03/06 11:14:20;;;;;;;;;;;17.20;41.00;;;;;;4979812;28;20379;-87
2021/03/06 11:16:55;;;;;;;;;;;18.00;40.20;;;;;;4993829;28;20039;-86
2021/03/06 11:19:27;;;;;;;;;;;18.60;37.40;;;;;;4992754;28;19921;-87
2021/03/06 11:21:55;;;;;;;;;;;18.70;36.60;;;;;;5007905;28;20028;-88
2021/03/06 11:24:24;;;;;;;;;;;18.60;36.80;;;;;;4996393;28;19947;-87
2021/03/06 11:26:54;;;;;;;;;;;18.70;36.80;;;;;;4996322;28;19917;-87
2021/03/06 11:29:25;;;;;;;;;;;18.90;36.90;;;;;;4997292;28;19914;-87
2021/03/06 11:31:54;;;;;;;;;;;18.90;35.60;;;;;;4997228;28;20298;-87
2021/03/06 11:34:23;;;;;;;;;;;18.90;35.80;;;;;;5013098;28;19910;-88
2021/03/06 11:36:55;;;;;;;;;;;18.80;35.60;;;;;;5002468;28;20277;-87
2021/03/06 11:39:31;;;;;;;;;;;18.80;35.90;;;;;;5017593;28;20350;-86
2021/03/06 11:41:56;;;;;;;;;;;18.70;35.80;;;;;;5032396;28;19913;-86
2021/03/06 11:44:24;;;;;;;;;;;18.20;35.90;;;;;;5035711;28;19970;-88
2021/03/06 11:46:50;;;;;;;;;;;18.00;36.50;;;;;;5016270;28;19909;-87
2021/03/06 11:49:24;;;;;;;;;;;17.60;36.10;;;;;;5036571;28;19923;-88
2021/03/06 11:51:51;;;;;;;;;;;17.30;37.10;;;;;;5019417;28;19917;-87
2021/03/06 11:54:27;;;;;;;;;;;17.20;37.00;;;;;;5037917;28;19936;-87
2021/03/06 11:56:52;;;;;;;;;;;17.50;36.60;;;;;;5031378;28;19910;-86
2021/03/06 11:59:21;;;;;;;;;;;17.60;36.90;;;;;;5034948;28;19916;-85
2021/03/06 12:01:49;;;;;;;;;;;17.80;37.10;;;;;;5035357;28;19921;-87
2021/03/06 12:04:24;;;;;;;;;;;17.90;36.90;;;;;;5016656;28;20363;-88
2021/03/06 12:07:21;;;;;;;;;;;17.80;36.80;;;;;;5056282;28;19913;-87
2021/03/06 12:09:49;;;;;;;;;;;17.90;36.80;;;;;;5038017;28;19923;-86
2021/03/06 12:12:18;;;;;;;;;;;17.90;36.40;;;;;;5056618;28;19957;-87
2021/03/06 12:15:08;;;;;;;;;;;17.70;36.70;;;;;;5055110;28;19908;-88
2021/03/06 12:17:39;;;;;;;;;;;17.80;36.90;;;;;;5037242;28;19963;-88
2021/03/06 12:20:42;;;;;;;;;;;17.70;37.40;;;;;;5033884;28;19917;-89
2021/03/06 12:23:09;;;;;;;;;;;17.70;37.40;;;;;;5016200;28;20505;-87
2021/03/06 12:25:49;;;;;;;;;;;17.80;36.70;;;;;;5017555;28;19915;-87
2021/03/06 12:28:18;;;;;;;;;;;17.70;36.90;;;;;;5018722;28;19909;-88
2021/03/06 12:30:49;;;;;;;;;;;17.90;36.70;;;;;;5030089;28;19932;-87
2021/03/06 12:33:18;;;;;;;;;;;18.20;37.20;;;;;;5001299;28;19918;-87
2021/03/06 12:35:47;;;;;;;;;;;19.00;37.00;;;;;;5016565;28;20004;-87
2021/03/06 12:38:19;;;;;;;;;;;19.20;36.10;;;;;;5015133;28;19909;-86
2021/03/06 12:40:53;;;;;;;;;;;19.70;36.10;;;;;;5014499;28;20301;-86
2021/03/06 12:43:21;;;;;;;;;;;19.80;34.60;;;;;;5016340;28;20041;-87
2021/03/06 12:45:50;;;;;;;;;;;19.20;34.40;;;;;;5014195;28;20283;-87
2021/03/06 12:48:18;;;;;;;;;;;18.20;35.50;;;;;;5013086;28;19909;-86
2021/03/06 12:50:54;;;;;;;;;;;16.90;36.90;;;;;;5023287;28;19924;-86
2021/03/06 12:53:23;;;;;;;;;;;15.70;38.30;;;;;;5041091;28;19909;-87
2021/03/06 12:55:53;;;;;;;;;;;14.20;39.90;;;;;;5037762;28;19920;-88
2021/03/06 12:58:24;;;;;;;;;;;13.20;41.80;;;;;;5055061;28;20358;-87
2021/03/06 13:00:55;;;;;;;;;;;12.50;42.90;;;;;;4991878;28;19909;-86
2021/03/06 13:03:20;;;;;;;;;;;12.10;44.20;;;;;;5036412;28;19909;-87
2021/03/06 13:05:55;;;;;;;;;;;11.70;44.50;;;;;;5020084;28;19925;-87
2021/03/06 13:08:31;;;;;;;;;;;11.40;45.50;;;;;;5017405;28;19952;-87
2021/03/06 13:11:02;;;;;;;;;;;11.00;45.70;;;;;;5019837;28;20003;-87
2021/03/06 13:13:28;;;;;;;;;;;11.10;46.10;;;;;;5017138;28;19909;-87
2021/03/06 13:15:58;;;;;;;;;;;11.20;45.90;;;;;;5036662;28;19909;-87
2021/03/06 13:18:24;;;;;;;;;;;11.70;46.20;;;;;;5013685;28;19914;-87
2021/03/06 13:20:51;;;;;;;;;;;12.70;45.50;;;;;;5016165;28;20409;-87
2021/03/06 13:23:19;;;;;;;;;;;12.80;43.50;;;;;;5000072;28;20355;-86
2021/03/06 13:25:51;;;;;;;;;;;12.30;43.70;;;;;;5001774;28;19914;-87
2021/03/06 13:28:18;;;;;;;;;;;11.60;45.00;;;;;;5016673;28;19913;-87
2021/03/06 13:30:45;;;;;;;;;;;11.10;46.00;;;;;;5000191;28;19961;-86
2021/03/06 13:33:14;;;;;;;;;;;11.30;46.60;;;;;;5032222;28;19914;-86
2021/03/06 13:35:40;;;;;;;;;;;11.30;46.00;;;;;;5016281;28;20396;-88
2021/03/06 13:38:08;;;;;;;;;;;11.20;46.30;;;;;;4999619;28;19920;-87
2021/03/06 13:40:38;;;;;;;;;;;11.00;46.80;;;;;;5016420;28;19910;-87
2021/03/06 13:43:08;;;;;;;;;;;10.80;47.20;;;;;;4968021;28;19917;-85
2021/03/06 13:45:37;;;;;;;;;;;10.70;47.70;;;;;;5015699;28;19910;-86
2021/03/06 13:48:08;;;;;;;;;;;10.80;47.50;;;;;;4968442;28;19910;-86
2021/03/06 13:50:37;;;;;;;;;;;11.00;47.00;;;;;;5019219;28;19916;-86
2021/03/06 13:53:20;;;;;;;;;;;10.90;47.00;;;;;;5015031;28;19936;-87
2021/03/06 13:55:50;;;;;;;;;;;10.60;47.20;;;;;;4995571;28;19910;-87
2021/03/06 13:58:19;;;;;;;;;;;10.50;48.10;;;;;;4993327;28;19917;-87
2021/03/06 14:00:46;;;;;;;;;;;10.30;48.50;;;;;;4979734;28;20001;-88
2021/03/06 14:03:25;;;;;;;;;;;10.30;48.90;;;;;;4994510;28;19910;-87
2021/03/06 14:05:55;;;;;;;;;;;10.20;48.80;;;;;;4975795;28;19923;-87
2021/03/06 14:08:24;;;;;;;;;;;10.20;48.70;;;;;;4956481;28;19914;-86
2021/03/06 14:11:05;;;;;;;;;;;10.30;48.90;;;;;;4960268;28;19959;-86
2021/03/06 14:13:41;;;;;;;;;;;10.50;49.10;;;;;;4976228;28;19921;-87
2021/03/06 14:16:07;;;;;;;;;;;10.50;48.90;;;;;;4959849;28;19965;-87
2021/03/06 14:18:41;;;;;;;;;;;10.50;49.10;;;;;;4976410;28;19997;-88
2021/03/06 14:21:14;;;;;;;;;;;10.30;49.60;;;;;;4978262;28;19966;-87
2021/03/06 14:23:45;;;;;;;;;;;10.20;49.80;;;;;;4979528;28;20429;-87
2021/03/06 14:26:11;;;;;;;;;;;10.20;50.50;;;;;;4998296;28;19910;-85
2021/03/06 14:28:45;;;;;;;;;;;10.10;50.10;;;;;;5015812;28;19921;-87
2021/03/06 14:31:18;;;;;;;;;;;10.10;50.20;;;;;;5016000;28;20429;-87
2021/03/06 14:33:46;;;;;;;;;;;10.00;49.80;;;;;;5015731;28;19917;-86
2021/03/06 14:36:12;;;;;;;;;;;10.30;50.20;;;;;;5015564;28;19968;-87
2021/03/06 14:38:53;;;;;;;;;;;10.70;49.20;;;;;;5015226;28;20272;-87
2021/03/06 14:41:19;;;;;;;;;;;10.80;48.40;;;;;;4999046;28;19941;-86
2021/03/06 14:43:47;;;;;;;;;;;10.70;48.50;;;;;;5009991;28;19975;-87
2021/03/06 14:46:16;;;;;;;;;;;10.60;49.10;;;;;;5009154;28;19909;-86